North Star, MI (48862)

11:57 EDT le 20 septembre 2014 (GMT -0400)
Gratiot Community | Change Station
CLOSE
Current Station
Aéroport
Location: Alma,
Altitude: 751 ft
Stations météo à proximité

Alt. 751 ft 43.32 °N, 84.69 °W | Updated 25 minutes ago

Partiellement nuageux
Partiellement nuageux
69 ° F
Paraît 69 ° F
N
8
Vent Variable Vent de OSO
Gusts 17 mph

Aujourd'hui
Haut(e) -- | Bas -- ° F
--% Risque de précip.
Hier
Haut(e) -- | Bas -- ° F
Precip. -- pouce
7:23 AM 7:39 PM
Lune descendante, 12% visible
Pression 29.86 pouce
Visibilité 10.0 Miles terrestres
Nuages Ciel dégagé
Point de rosée 59 ° F
Humidité 69%
Précipitations 0.00 pouce
Profondeur de la couche neigeuse Non disponible.
UV 5 sur 12
Pollen 3.10 sur 12
Ozone Bon
Flu Activity Non disponible.
METAR KAMN 201532Z AUTO 25007G15KT 10SM CLR 21/15 A2986 RMK AO2 T02080149

More Conditions Fewer Conditions

Pression 29.86 pouce
Visibilité 10.0 Miles terrestres
Nuages Ciel dégagé
Point de rosée 59 ° F
Humidité 69%
Précipitations 0.00 pouce
Profondeur de la couche neigeuse Non disponible.
UV 5 sur 12
Pollen 3.10 sur 12
Ozone Bon
Flu Activity Non disponible.
METAR KAMN 201532Z AUTO 25007G15KT 10SM CLR 21/15 A2986 RMK AO2 T02080149

More Conditions Fewer Conditions

10-Day Weather Forecast

Almanac

Astronomie

Sep. 20, 2014 Lever Coucher
Temps réel 07:23 EDT 19:39 EDT
Crépuscule civil 06:54 EDT 20:07 EDT
Crépuscule nautique 06:21 EDT 20:40 EDT
Crépuscule astronomique 05:46 EDT 21:15 EDT
Lune 03:57 EDT 17:45 EDT
Durée de lumière visible 13h 12m
Longueur du jour
12h 15m
Tomorrow will be 2m 56s shorter.
Lune descendante, 12% of the Moon is Illuminated
Aujourd'hui
Lune descendante
Sep 24
Nouveau
Oct 1
Premier quartier
Oct 8
Pleine lune
Oct 15
Dernier quartier

Extrêmes aujourd'hui

State Highs State Lows

Community

WunderPhotos

Upload Photos

1,754,883 Photos téléchargées !

Nearby

Qualité de l'air

  Qualité de l'air Indice de la qualité de l'air Polluant
Hier Bon
OZONE
Actuel Bon
OZONE
samedi Bon
OZONE
samedi Bon
PM2.5
dimanche Bon
OZONE
dimanche Bon
PM2.5
lundi Bon
OZONE
lundi Bon
PM2.5

Épaisseur de neige

Station Depth Altitude
Pas de nouvelles chutes de neige

Activité sismique

Ville Distance Mag. Time & Date
No recent earthquake activity has been reported nearby.
Minimum magnitude displayed is 2.5.

Températures des eaux côtières

Lieu Température
Aucun rapport de station

Stations météo à proximité